createdAt,value
2024-01-30T00:02:28.568Z,101874.19
2024-01-30T00:04:58.310Z,101868.69
2024-01-30T00:07:28.227Z,101866.88
2024-01-30T00:09:58.109Z,101870.88
2024-01-30T00:12:28.025Z,101865.41
2024-01-30T00:14:57.785Z,101869.31
2024-01-30T00:17:27.814Z,101866.91
2024-01-30T00:19:57.927Z,101874.78
2024-01-30T00:22:27.672Z,101874.28
2024-01-30T00:24:57.256Z,101876.50
2024-01-30T00:27:29.085Z,101874.13
2024-01-30T00:29:58.819Z,101879.72
2024-01-30T00:32:28.419Z,101873.03
2024-01-30T00:34:58.233Z,101880.91
2024-01-30T00:37:28.022Z,101888.53
2024-01-30T00:39:57.670Z,101881.94
2024-01-30T00:42:27.124Z,101881.69
2024-01-30T00:44:57.087Z,101884.03
2024-01-30T00:47:26.641Z,101888.34
2024-01-30T00:49:56.277Z,101884.22
2024-01-30T00:52:26.015Z,101887.72
2024-01-30T00:54:55.733Z,101892.56
2024-01-30T00:57:25.458Z,101880.28
2024-01-30T00:59:55.092Z,101886.00
2024-01-30T01:02:25.111Z,101879.72
2024-01-30T01:04:54.785Z,101874.66
2024-01-30T01:07:24.746Z,101874.06
2024-01-30T01:09:54.445Z,101873.69
2024-01-30T01:12:24.334Z,101874.72
2024-01-30T01:14:53.961Z,101876.31
2024-01-30T01:17:23.670Z,101862.81
2024-01-30T01:19:53.394Z,101878.53
2024-01-30T01:22:24.168Z,101874.72
2024-01-30T01:24:53.917Z,101876.19
2024-01-30T01:27:23.620Z,101879.34
2024-01-30T01:29:54.085Z,101877.97
2024-01-30T01:32:23.728Z,101870.97
2024-01-30T01:34:54.079Z,101879.44
2024-01-30T01:37:24.014Z,101874.97
2024-01-30T01:39:53.950Z,101866.50
2024-01-30T01:42:23.872Z,101867.78
2024-01-30T01:44:53.576Z,101873.56
2024-01-30T01:47:22.844Z,101864.84
2024-01-30T01:49:52.567Z,101865.41
2024-01-30T01:52:21.614Z,101853.91
2024-01-30T01:54:51.402Z,101856.88
2024-01-30T01:57:21.212Z,101861.88
2024-01-30T01:59:50.818Z,101860.94
2024-01-30T02:02:21.043Z,101862.56
2024-01-30T02:04:51.226Z,101857.59
2024-01-30T02:07:23.126Z,101859.44
2024-01-30T02:09:52.032Z,101861.81
2024-01-30T02:12:21.667Z,101858.22
2024-01-30T02:14:51.508Z,101863.31
2024-01-30T02:17:19.522Z,101864.28
2024-01-30T02:19:49.442Z,101860.41
2024-01-30T02:22:19.527Z,101863.09
2024-01-30T02:24:47.628Z,101864.00
2024-01-30T02:27:17.480Z,101862.59
2024-01-30T02:29:47.332Z,101859.50
2024-01-30T02:32:16.884Z,101866.03
2024-01-30T02:34:45.720Z,101867.31
2024-01-30T02:37:14.637Z,101864.09
2024-01-30T02:39:44.295Z,101861.59
2024-01-30T02:42:13.924Z,101868.34
2024-01-30T02:44:42.550Z,101869.41
2024-01-30T02:47:12.070Z,101867.63
2024-01-30T02:49:40.992Z,101862.94
2024-01-30T02:52:09.780Z,101875.78
2024-01-30T02:54:39.490Z,101876.59
2024-01-30T02:57:09.637Z,101873.28
2024-01-30T02:59:38.392Z,101866.53
2024-01-30T03:02:06.640Z,101869.13
2024-01-30T03:04:35.626Z,101867.16
2024-01-30T03:07:03.592Z,101870.31
2024-01-30T03:09:32.327Z,101867.06
2024-01-30T03:12:00.258Z,101868.72
2024-01-30T03:14:32.921Z,101869.50
2024-01-30T03:17:00.751Z,101861.03
2024-01-30T03:19:30.627Z,101853.78
2024-01-30T03:22:01.355Z,101855.81
2024-01-30T03:24:30.944Z,101852.69
2024-01-30T03:26:58.753Z,101855.44
2024-01-30T03:29:28.327Z,101846.28
2024-01-30T03:31:57.006Z,101840.59
2024-01-30T03:34:26.863Z,101849.78
2024-01-30T03:36:56.575Z,101844.16
2024-01-30T03:39:26.527Z,101846.03
2024-01-30T03:41:56.168Z,101844.59
2024-01-30T03:44:24.918Z,101843.53
2024-01-30T03:46:52.835Z,101843.28
2024-01-30T03:49:22.465Z,101838.56
2024-01-30T03:51:50.519Z,101845.38
2024-01-30T03:54:20.234Z,101843.34
2024-01-30T03:56:49.987Z,101847.47
2024-01-30T03:59:24.262Z,101844.38
2024-01-30T04:01:54.391Z,101838.06
2024-01-30T04:04:24.449Z,101836.63
2024-01-30T04:06:54.231Z,101845.41
2024-01-30T04:09:24.094Z,101843.13
2024-01-30T04:11:53.697Z,101845.66
2024-01-30T04:14:21.544Z,101843.59
2024-01-30T04:16:50.357Z,101835.22
2024-01-30T04:19:19.143Z,101838.56
2024-01-30T04:21:48.892Z,101858.50
2024-01-30T04:24:19.935Z,101849.63
2024-01-30T04:26:49.638Z,101850.03
2024-01-30T04:29:19.272Z,101851.00
2024-01-30T04:31:48.936Z,101847.22
2024-01-30T04:34:18.680Z,101838.53
2024-01-30T04:36:48.454Z,101847.00
2024-01-30T04:39:17.334Z,101849.44
2024-01-30T04:41:46.135Z,101842.94
2024-01-30T04:44:15.119Z,101846.28
2024-01-30T04:46:44.748Z,101838.38
2024-01-30T04:49:13.713Z,101847.38
2024-01-30T04:51:43.406Z,101841.56
2024-01-30T04:54:13.062Z,101842.97
2024-01-30T04:56:42.703Z,101851.09
2024-01-30T04:59:12.857Z,101846.75
2024-01-30T05:01:42.506Z,101847.31
2024-01-30T05:04:17.001Z,101843.09
2024-01-30T05:06:47.478Z,101851.00
2024-01-30T05:09:16.133Z,101848.09
2024-01-30T05:11:45.766Z,101849.41
2024-01-30T05:14:16.430Z,101849.78
2024-01-30T05:16:48.127Z,101854.31
2024-01-30T05:19:18.903Z,101852.50
2024-01-30T05:21:48.820Z,101853.44
2024-01-30T05:24:21.070Z,101849.50
2024-01-30T05:26:52.483Z,101850.41
2024-01-30T05:29:22.280Z,101849.53
2024-01-30T05:31:51.981Z,101858.63
2024-01-30T05:34:21.726Z,101855.53
2024-01-30T05:36:51.468Z,101859.44
2024-01-30T05:39:21.325Z,101864.91
2024-01-30T05:41:51.114Z,101868.44
2024-01-30T05:44:20.776Z,101872.16
2024-01-30T05:46:50.972Z,101873.28
2024-01-30T05:49:20.693Z,101881.47
2024-01-30T05:51:50.537Z,101874.25
2024-01-30T05:54:20.274Z,101872.41
2024-01-30T05:56:49.850Z,101871.09
2024-01-30T05:59:19.454Z,101877.47
2024-01-30T06:01:50.158Z,101881.41
2024-01-30T06:04:19.904Z,101893.28
2024-01-30T06:06:49.782Z,101892.00
2024-01-30T06:09:19.451Z,101895.13
2024-01-30T06:11:49.108Z,101897.69
2024-01-30T06:14:18.807Z,101896.41
2024-01-30T06:16:48.450Z,101893.31
2024-01-30T06:19:18.219Z,101891.75
2024-01-30T06:21:48.007Z,101901.09
2024-01-30T06:24:18.351Z,101896.38
2024-01-30T06:26:48.081Z,101892.91
2024-01-30T06:29:20.266Z,101898.63
2024-01-30T06:31:50.246Z,101899.19
2024-01-30T06:34:20.154Z,101901.94
2024-01-30T06:36:49.926Z,101899.09
2024-01-30T06:39:19.602Z,101904.00
2024-01-30T06:41:49.277Z,101899.16
2024-01-30T06:44:18.912Z,101898.56
2024-01-30T06:46:48.528Z,101903.19
2024-01-30T06:49:18.201Z,101901.03
2024-01-30T06:51:47.936Z,101905.78
2024-01-30T06:54:17.588Z,101906.16
2024-01-30T06:56:47.353Z,101900.97
2024-01-30T06:59:17.017Z,101895.72
2024-01-30T07:01:46.708Z,101894.81
2024-01-30T07:04:17.323Z,101898.31
2024-01-30T07:06:47.125Z,101906.53
2024-01-30T07:09:16.874Z,101911.81
2024-01-30T07:11:46.523Z,101910.88
2024-01-30T07:14:16.326Z,101919.69
2024-01-30T07:16:46.023Z,101922.81
2024-01-30T07:19:15.776Z,101926.31
2024-01-30T07:21:45.624Z,101927.34
2024-01-30T07:24:15.419Z,101921.19
2024-01-30T07:26:45.084Z,101926.47
2024-01-30T07:29:14.808Z,101929.09
2024-01-30T07:31:45.415Z,101924.75
2024-01-30T07:34:15.441Z,101926.81
2024-01-30T07:36:44.257Z,101926.53
2024-01-30T07:39:13.868Z,101907.75
2024-01-30T07:41:43.590Z,101919.75
2024-01-30T07:44:13.173Z,101903.78
2024-01-30T07:46:42.919Z,101911.88
2024-01-30T07:49:12.902Z,101914.34
2024-01-30T07:51:42.723Z,101913.38
2024-01-30T07:54:18.903Z,101903.84
2024-01-30T07:56:48.555Z,101904.25
2024-01-30T07:59:18.321Z,101906.78
2024-01-30T08:01:48.015Z,101911.00
2024-01-30T08:04:18.999Z,101906.38
2024-01-30T08:06:48.934Z,101911.72
2024-01-30T08:09:18.759Z,101900.56
2024-01-30T08:11:48.465Z,101913.75
2024-01-30T08:14:16.295Z,101905.94
2024-01-30T08:16:45.895Z,101907.78
2024-01-30T08:19:16.945Z,101906.28
2024-01-30T08:21:46.722Z,101901.28
2024-01-30T08:24:16.356Z,101900.53
2024-01-30T08:26:46.273Z,101906.16
2024-01-30T08:29:15.905Z,101906.09
2024-01-30T08:31:47.152Z,101903.44
2024-01-30T08:34:17.320Z,101924.00
2024-01-30T08:36:47.294Z,101921.63
2024-01-30T08:39:17.040Z,101918.81
2024-01-30T08:41:46.700Z,101916.63
2024-01-30T08:44:16.627Z,101917.81
2024-01-30T08:46:46.773Z,101916.72
2024-01-30T08:49:15.676Z,101926.97
2024-01-30T08:51:45.436Z,101919.25
2024-01-30T08:54:14.966Z,101922.22
2024-01-30T08:56:44.624Z,101915.06
2024-01-30T08:59:14.396Z,101916.22
2024-01-30T09:01:52.358Z,101914.38
2024-01-30T09:04:29.964Z,101918.44
2024-01-30T09:07:00.030Z,101915.19
2024-01-30T09:09:28.892Z,101919.09
2024-01-30T09:12:03.379Z,101923.16
2024-01-30T09:14:32.920Z,101920.81
2024-01-30T09:17:02.661Z,101919.78
2024-01-30T09:19:32.765Z,101915.06
2024-01-30T09:22:02.529Z,101914.44
2024-01-30T09:24:32.137Z,101915.97
2024-01-30T09:27:01.729Z,101910.66
2024-01-30T09:29:31.313Z,101910.44
2024-01-30T09:32:01.649Z,101917.91
2024-01-30T09:34:31.284Z,101916.41
2024-01-30T09:37:01.771Z,101913.88
2024-01-30T09:39:31.377Z,101911.31
2024-01-30T09:42:38.613Z,101912.84
2024-01-30T09:45:08.545Z,101912.91
2024-01-30T09:47:46.286Z,101915.47
2024-01-30T09:50:18.033Z,101907.81
2024-01-30T09:52:49.303Z,101911.34
2024-01-30T09:55:19.000Z,101906.09
2024-01-30T09:57:49.107Z,101906.13
2024-01-30T10:00:18.953Z,101902.56
2024-01-30T10:02:48.848Z,101903.47
2024-01-30T10:05:21.771Z,101911.44
2024-01-30T10:07:59.640Z,101900.81
2024-01-30T10:10:29.443Z,101905.25
2024-01-30T10:13:00.078Z,101903.41
2024-01-30T10:15:30.876Z,101895.38
2024-01-30T10:18:00.437Z,101898.13
2024-01-30T10:20:30.169Z,101896.25
2024-01-30T10:22:59.209Z,101896.34
2024-01-30T10:25:29.050Z,101891.88
2024-01-30T10:28:00.543Z,101893.53
2024-01-30T10:30:30.163Z,101895.38
2024-01-30T10:32:59.168Z,101892.56
2024-01-30T10:35:28.123Z,101883.81
2024-01-30T10:38:00.058Z,101890.91
2024-01-30T10:40:31.268Z,101888.97
2024-01-30T10:43:05.375Z,101881.81
2024-01-30T10:45:37.109Z,101879.09
2024-01-30T10:48:09.956Z,101874.19
2024-01-30T10:50:47.442Z,101874.09
2024-01-30T10:53:21.261Z,101873.00
2024-01-30T10:55:54.193Z,101866.59
2024-01-30T10:58:24.397Z,101865.84
2024-01-30T11:00:53.705Z,101855.13
2024-01-30T11:03:24.150Z,101865.00
2024-01-30T11:05:54.200Z,101863.16
2024-01-30T11:08:29.375Z,101856.19
2024-01-30T11:11:00.390Z,101852.75
2024-01-30T11:13:32.233Z,101851.47
2024-01-30T11:16:08.459Z,101847.31
2024-01-30T11:18:38.792Z,101838.34
2024-01-30T11:21:08.362Z,101848.88
2024-01-30T11:23:38.028Z,101849.69
2024-01-30T11:26:07.991Z,101843.47
2024-01-30T11:28:40.237Z,101837.13
2024-01-30T11:31:10.168Z,101840.84
2024-01-30T11:33:40.029Z,101842.84
2024-01-30T11:36:10.684Z,101839.91
2024-01-30T11:38:42.684Z,101832.22
2024-01-30T11:41:12.500Z,101831.28
2024-01-30T11:43:42.104Z,101832.72
2024-01-30T11:46:11.943Z,101828.41
2024-01-30T11:48:41.614Z,101821.25
2024-01-30T11:51:11.252Z,101813.50
2024-01-30T11:53:40.893Z,101811.59
2024-01-30T11:56:10.508Z,101805.34
2024-01-30T11:58:45.286Z,101803.59
2024-01-30T12:01:15.048Z,101808.59
2024-01-30T12:03:51.015Z,101810.66
2024-01-30T12:06:20.777Z,101795.63
2024-01-30T12:09:10.182Z,101801.50
2024-01-30T12:11:51.194Z,101800.34
2024-01-30T12:14:22.747Z,101796.19
2024-01-30T12:16:52.565Z,101793.06
2024-01-30T12:19:28.427Z,101788.25
2024-01-30T12:22:00.718Z,101782.91
2024-01-30T12:24:31.740Z,101782.91
2024-01-30T12:27:01.901Z,101786.53
2024-01-30T12:29:36.460Z,101775.78
2024-01-30T12:32:08.650Z,101771.19
2024-01-30T12:34:53.883Z,101779.84
2024-01-30T12:37:26.940Z,101762.28
2024-01-30T12:39:57.308Z,101761.16
2024-01-30T12:42:29.275Z,101760.13
2024-01-30T12:45:04.097Z,101757.22
2024-01-30T12:47:34.133Z,101752.03
2024-01-30T12:50:04.619Z,101754.13
2024-01-30T12:52:34.305Z,101753.13
2024-01-30T12:55:05.564Z,101749.88
2024-01-30T12:57:35.247Z,101748.28
2024-01-30T13:00:05.490Z,101749.66
2024-01-30T13:02:37.736Z,101753.06
2024-01-30T13:05:08.056Z,101748.94
2024-01-30T13:07:37.280Z,101749.50
2024-01-30T13:10:07.470Z,101736.09
2024-01-30T13:12:38.338Z,101736.97
2024-01-30T13:15:09.175Z,101741.56
2024-01-30T13:17:39.169Z,101743.69
2024-01-30T13:20:11.998Z,101733.59
2024-01-30T13:22:41.636Z,101738.72
2024-01-30T13:25:10.489Z,101739.19
2024-01-30T13:27:40.046Z,101735.31
2024-01-30T13:30:12.718Z,101735.88
2024-01-30T13:32:45.770Z,101734.44
2024-01-30T13:35:15.748Z,101728.66
2024-01-30T13:37:45.822Z,101732.94
2024-01-30T13:40:15.949Z,101734.81
2024-01-30T13:42:45.033Z,101732.09
2024-01-30T13:45:14.818Z,101727.56
2024-01-30T13:47:44.363Z,101724.06
2024-01-30T13:50:16.607Z,101723.59
2024-01-30T13:52:46.379Z,101725.31
2024-01-30T13:55:16.138Z,101727.75
2024-01-30T13:57:44.825Z,101722.75
2024-01-30T14:00:17.775Z,101717.59
2024-01-30T14:02:47.580Z,101721.00
2024-01-30T14:05:17.553Z,101722.63
2024-01-30T14:07:47.376Z,101723.50
2024-01-30T14:10:16.258Z,101729.75
2024-01-30T14:12:46.308Z,101730.63
2024-01-30T14:15:24.165Z,101723.69
2024-01-30T14:17:59.621Z,101720.47
2024-01-30T14:20:29.230Z,101726.34
2024-01-30T14:22:59.151Z,101729.06
2024-01-30T14:25:28.740Z,101720.16
2024-01-30T14:27:58.319Z,101716.81
2024-01-30T14:30:27.188Z,101721.16
2024-01-30T14:32:57.495Z,101720.63
2024-01-30T14:35:27.191Z,101718.09
2024-01-30T14:37:56.754Z,101714.44
2024-01-30T14:40:26.375Z,101711.88
2024-01-30T14:42:56.338Z,101716.38
2024-01-30T14:45:25.877Z,101705.72
2024-01-30T14:47:57.375Z,101704.09
2024-01-30T14:50:29.693Z,101698.81
2024-01-30T14:52:59.412Z,101695.25
2024-01-30T14:55:29.615Z,101704.16
2024-01-30T14:58:00.855Z,101702.38
2024-01-30T15:00:30.750Z,101705.03
2024-01-30T15:03:00.523Z,101700.63
2024-01-30T15:05:30.405Z,101700.59
2024-01-30T15:08:00.427Z,101704.16
2024-01-30T15:10:30.169Z,101708.56
2024-01-30T15:13:00.097Z,101713.91
2024-01-30T15:15:31.426Z,101714.75
2024-01-30T15:18:01.228Z,101702.38
2024-01-30T15:20:32.677Z,101707.66
2024-01-30T15:23:02.281Z,101708.53
2024-01-30T15:25:33.067Z,101710.22
2024-01-30T15:28:02.880Z,101709.31
2024-01-30T15:30:32.606Z,101709.38
2024-01-30T15:33:03.176Z,101705.66
2024-01-30T15:35:33.146Z,101710.09
2024-01-30T15:38:04.635Z,101710.00
2024-01-30T15:40:34.314Z,101708.94
2024-01-30T15:43:04.091Z,101711.41
2024-01-30T15:45:33.938Z,101716.09
2024-01-30T15:48:03.725Z,101716.13
2024-01-30T15:50:33.373Z,101715.78
2024-01-30T15:53:03.134Z,101717.38
2024-01-30T15:55:32.971Z,101726.88
2024-01-30T15:58:02.855Z,101724.66
2024-01-30T16:00:32.616Z,101716.72
2024-01-30T16:03:01.383Z,101725.22
2024-01-30T16:05:31.086Z,101722.38
2024-01-30T16:08:00.853Z,101726.13
2024-01-30T16:10:30.764Z,101730.31
2024-01-30T16:13:00.631Z,101729.59
2024-01-30T16:15:30.456Z,101730.91
2024-01-30T16:18:00.277Z,101723.41
2024-01-30T16:20:30.178Z,101729.44
2024-01-30T16:22:59.974Z,101732.66
2024-01-30T16:25:29.908Z,101727.34
2024-01-30T16:28:00.188Z,101722.88
2024-01-30T16:30:30.036Z,101716.19
2024-01-30T16:33:00.802Z,101724.47
2024-01-30T16:35:44.990Z,101718.97
2024-01-30T16:38:16.529Z,101717.03
2024-01-30T16:40:46.930Z,101721.56
2024-01-30T16:43:16.676Z,101724.88
2024-01-30T16:45:47.414Z,101718.31
2024-01-30T16:48:19.425Z,101723.75
2024-01-30T16:50:50.190Z,101717.19
2024-01-30T16:53:19.822Z,101720.44
2024-01-30T16:55:49.531Z,101717.31
2024-01-30T16:58:19.250Z,101718.16
2024-01-30T17:00:49.200Z,101714.91
2024-01-30T17:03:19.128Z,101717.28
2024-01-30T17:05:49.000Z,101713.63
2024-01-30T17:08:18.809Z,101716.41
2024-01-30T17:10:48.810Z,101714.63
2024-01-30T17:13:18.965Z,101706.72
2024-01-30T17:15:47.037Z,101710.91
2024-01-30T17:18:17.626Z,101706.69
2024-01-30T17:20:47.516Z,101701.16
2024-01-30T17:23:18.200Z,101697.47
2024-01-30T17:25:51.011Z,101703.13
2024-01-30T17:28:20.824Z,101700.91
2024-01-30T17:30:50.655Z,101700.00
2024-01-30T17:33:20.460Z,101694.66
2024-01-30T17:35:50.324Z,101696.16
2024-01-30T17:38:19.999Z,101694.66
2024-01-30T17:41:02.512Z,101699.75
2024-01-30T17:43:39.160Z,101690.94
2024-01-30T17:46:10.423Z,101694.28
2024-01-30T17:48:40.348Z,101687.63
2024-01-30T17:51:10.044Z,101693.19
2024-01-30T17:53:39.895Z,101689.91
2024-01-30T17:56:07.841Z,101689.91
2024-01-30T17:58:39.629Z,101695.97
2024-01-30T18:01:10.064Z,101685.47
2024-01-30T18:03:42.202Z,101688.44
2024-01-30T18:06:16.954Z,101690.56
2024-01-30T18:08:47.712Z,101689.69
2024-01-30T18:11:18.354Z,101693.13
2024-01-30T18:13:49.055Z,101687.84
2024-01-30T18:16:18.787Z,101684.50
2024-01-30T18:18:48.761Z,101687.97
2024-01-30T18:21:18.537Z,101685.00
2024-01-30T18:23:49.344Z,101676.97
2024-01-30T18:26:19.928Z,101679.78
2024-01-30T18:28:50.197Z,101674.09
2024-01-30T18:31:20.043Z,101683.78
2024-01-30T18:33:52.610Z,101680.28
2024-01-30T18:36:25.460Z,101673.56
2024-01-30T18:38:57.148Z,101671.91
2024-01-30T18:41:26.783Z,101670.03
2024-01-30T18:43:56.471Z,101671.81
2024-01-30T18:46:26.359Z,101672.66
2024-01-30T18:48:57.241Z,101673.09
2024-01-30T18:51:26.994Z,101670.50
2024-01-30T18:53:56.734Z,101674.50
2024-01-30T18:56:26.441Z,101676.91
2024-01-30T18:58:55.293Z,101671.59
2024-01-30T19:01:25.294Z,101660.34
2024-01-30T19:03:55.472Z,101663.03
2024-01-30T19:06:26.212Z,101662.97
2024-01-30T19:08:56.697Z,101659.97
2024-01-30T19:11:26.448Z,101666.28
2024-01-30T19:13:56.175Z,101666.41
2024-01-30T19:16:26.217Z,101666.69
2024-01-30T19:18:57.429Z,101667.84
2024-01-30T19:21:29.021Z,101670.50
2024-01-30T19:24:01.784Z,101669.19
2024-01-30T19:26:32.704Z,101666.59
2024-01-30T19:29:03.333Z,101670.44
2024-01-30T19:31:33.280Z,101665.78
2024-01-30T19:34:05.633Z,101673.81
2024-01-30T19:36:37.261Z,101674.00
2024-01-30T19:39:14.548Z,101677.34
2024-01-30T19:41:45.384Z,101679.09
2024-01-30T19:44:15.213Z,101671.75
2024-01-30T19:46:45.815Z,101674.22
2024-01-30T19:49:17.594Z,101665.34
2024-01-30T19:51:47.408Z,101665.34
2024-01-30T19:54:18.951Z,101664.91
2024-01-30T19:56:49.495Z,101667.22
2024-01-30T19:59:19.323Z,101664.44
2024-01-30T20:01:49.874Z,101656.47
2024-01-30T20:04:19.709Z,101664.25
2024-01-30T20:06:49.889Z,101657.47
2024-01-30T20:09:19.692Z,101660.34
2024-01-30T20:11:49.471Z,101657.72
2024-01-30T20:14:21.590Z,101662.06
2024-01-30T20:16:51.369Z,101659.31
2024-01-30T20:19:22.091Z,101662.00
2024-01-30T20:21:52.810Z,101660.19
2024-01-30T20:24:23.335Z,101658.31
2024-01-30T20:26:53.898Z,101658.84
2024-01-30T20:29:24.003Z,101659.06
2024-01-30T20:31:53.861Z,101661.28
2024-01-30T20:34:23.789Z,101659.63
2024-01-30T20:36:54.642Z,101660.75
2024-01-30T20:39:25.373Z,101660.66
2024-01-30T20:41:55.168Z,101659.25
2024-01-30T20:44:25.828Z,101649.94
2024-01-30T20:46:55.573Z,101644.06
2024-01-30T20:49:25.660Z,101648.56
2024-01-30T20:51:55.561Z,101655.78
2024-01-30T20:54:26.244Z,101649.56
2024-01-30T20:56:56.033Z,101649.44
2024-01-30T20:59:25.817Z,101654.38
2024-01-30T21:01:55.616Z,101649.34
2024-01-30T21:04:25.608Z,101651.97
2024-01-30T21:06:58.258Z,101660.63
2024-01-30T21:09:28.775Z,101652.41
2024-01-30T21:11:58.712Z,101649.34
2024-01-30T21:14:29.359Z,101645.31
2024-01-30T21:16:59.276Z,101646.31
2024-01-30T21:19:28.984Z,101646.31
2024-01-30T21:21:58.786Z,101639.84
2024-01-30T21:24:29.352Z,101641.97
2024-01-30T21:26:59.063Z,101640.69
2024-01-30T21:29:28.783Z,101649.72
2024-01-30T21:31:59.576Z,101646.19
2024-01-30T21:34:29.521Z,101647.06
2024-01-30T21:36:59.253Z,101643.97
2024-01-30T21:39:29.786Z,101643.81
2024-01-30T21:41:59.664Z,101640.09
2024-01-30T21:44:31.162Z,101641.66
2024-01-30T21:47:02.111Z,101627.28
2024-01-30T21:49:32.046Z,101632.06
2024-01-30T21:52:06.606Z,101632.53
2024-01-30T21:54:38.324Z,101627.97
2024-01-30T21:57:08.193Z,101625.72
2024-01-30T21:59:38.032Z,101622.69
2024-01-30T22:02:08.750Z,101628.63
2024-01-30T22:04:39.779Z,101624.31
2024-01-30T22:07:10.019Z,101626.41
2024-01-30T22:09:40.643Z,101628.56
2024-01-30T22:12:11.202Z,101624.00
2024-01-30T22:14:41.864Z,101624.16
2024-01-30T22:17:11.593Z,101624.16
2024-01-30T22:19:42.217Z,101625.88
2024-01-30T22:22:12.847Z,101615.59
2024-01-30T22:24:43.380Z,101620.53
2024-01-30T22:27:13.976Z,101616.22
2024-01-30T22:29:44.239Z,101609.84
2024-01-30T22:32:14.796Z,101612.59
2024-01-30T22:34:44.820Z,101610.47
2024-01-30T22:37:14.693Z,101608.28
2024-01-30T22:39:45.230Z,101614.88
2024-01-30T22:42:15.851Z,101614.03
2024-01-30T22:44:45.612Z,101614.09
2024-01-30T22:47:15.354Z,101621.13
2024-01-30T22:49:46.066Z,101617.75
2024-01-30T22:52:16.866Z,101617.50
2024-01-30T22:54:46.653Z,101617.22
2024-01-30T22:57:17.211Z,101611.53
2024-01-30T22:59:47.804Z,101611.97
2024-01-30T23:02:18.410Z,101606.91
2024-01-30T23:04:48.199Z,101605.56
2024-01-30T23:07:18.981Z,101605.22
2024-01-30T23:09:49.521Z,101597.81
2024-01-30T23:12:20.631Z,101607.16
2024-01-30T23:14:53.192Z,101607.38
2024-01-30T23:17:23.744Z,101604.88
2024-01-30T23:19:54.393Z,101602.47
2024-01-30T23:22:24.189Z,101596.25
2024-01-30T23:24:55.069Z,101603.00
2024-01-30T23:27:24.799Z,101600.03
2024-01-30T23:29:54.556Z,101598.50
2024-01-30T23:32:30.149Z,101595.28
2024-01-30T23:35:06.256Z,101595.44
2024-01-30T23:37:36.487Z,101596.09
2024-01-30T23:40:19.054Z,101590.59
2024-01-30T23:42:48.887Z,101582.38
2024-01-30T23:45:18.676Z,101585.72
2024-01-30T23:47:48.406Z,101580.09
2024-01-30T23:50:18.166Z,101580.81
2024-01-30T23:52:49.778Z,101579.31
2024-01-30T23:55:19.561Z,101576.19
2024-01-30T23:57:49.370Z,101580.31
